Time;durP1;ratioP1;P1;durP2;ratioP2;P2;SDS_P1;SDS_P2;PMS_P1;PMS_P2;Temp;Humidity;BMP_temperature;BMP_pressure;BME280_temperature;BME280_humidity;BME280_pressure;Samples;Min_cycle;Max_cycle;Signal;HPM_P1;HPM_P2
2021/06/16 00:00:13;;;;;;;4.40;2.37;;;;;;;;;;5056162;28;20552;-63
2021/06/16 00:02:39;;;;;;;2.80;2.07;;;;;;;;;;5056361;28;20260;-63
2021/06/16 00:05:06;;;;;;;7.73;2.67;;;;;;;;;;5055942;28;20456;-64
2021/06/16 00:07:32;;;;;;;4.80;1.90;;;;;;;;;;5055311;28;20463;-63
2021/06/16 00:09:57;;;;;;;2.50;2.10;;;;;;;;;;5055846;28;20915;-62
2021/06/16 00:12:24;;;;;;;3.60;2.20;;;;;;;;;;5055239;28;20303;-63
2021/06/16 00:14:50;;;;;;;3.10;1.70;;;;;;;;;;5056127;28;20213;-64
2021/06/16 00:17:15;;;;;;;2.60;2.10;;;;;;;;;;5038144;28;20451;-63
2021/06/16 00:19:41;;;;;;;3.37;2.17;;;;;;;;;;5056146;28;20598;-63
2021/06/16 00:22:06;;;;;;;4.37;2.37;;;;;;;;;;5055685;28;20644;-64
2021/06/16 00:24:32;;;;;;;5.90;2.27;;;;;;;;;;5055984;28;20358;-63
2021/06/16 00:26:57;;;;;;;2.20;2.00;;;;;;;;;;5055604;28;20221;-63
2021/06/16 00:29:22;;;;;;;3.30;2.20;;;;;;;;;;5055931;28;20464;-64
2021/06/16 00:31:48;;;;;;;2.80;2.47;;;;;;;;;;5055986;28;20336;-64
2021/06/16 00:34:13;;;;;;;2.73;1.70;;;;;;;;;;5055540;28;20558;-63
2021/06/16 00:36:38;;;;;;;3.00;2.40;;;;;;;;;;5055748;28;20308;-64
2021/06/16 00:39:05;;;;;;;6.30;2.03;;;;;;;;;;5055253;28;20228;-64
2021/06/16 00:41:31;;;;;;;2.40;1.90;;;;;;;;;;5055474;28;20237;-64
2021/06/16 00:43:56;;;;;;;2.50;1.83;;;;;;;;;;5055301;28;20467;-63
2021/06/16 00:46:21;;;;;;;4.07;2.30;;;;;;;;;;5055613;28;20355;-64
2021/06/16 00:48:46;;;;;;;2.43;2.17;;;;;;;;;;5055720;28;20229;-63
2021/06/16 00:51:12;;;;;;;3.97;2.23;;;;;;;;;;5054224;28;20576;-64
2021/06/16 00:53:37;;;;;;;2.60;2.40;;;;;;;;;;5055520;28;20313;-64
2021/06/16 00:56:03;;;;;;;3.63;2.40;;;;;;;;;;5055045;28;20312;-63
2021/06/16 00:58:28;;;;;;;3.37;2.03;;;;;;;;;;5055472;28;20671;-63
2021/06/16 01:01:05;;;;;;;4.10;2.10;;;;;;;;;;5055229;28;20249;-64
2021/06/16 01:03:39;;;;;;;3.27;2.40;;;;;;;;;;5053628;28;22514;-64
2021/06/16 01:06:16;;;;;;;3.30;2.20;;;;;;;;;;5054372;28;20965;-64
2021/06/16 01:08:52;;;;;;;3.50;1.73;;;;;;;;;;5054124;28;20459;-63
2021/06/16 01:11:18;;;;;;;2.90;2.23;;;;;;;;;;5053728;28;20452;-63
2021/06/16 01:13:55;;;;;;;3.20;2.10;;;;;;;;;;5054133;28;20467;-63
2021/06/16 01:16:26;;;;;;;2.27;2.00;;;;;;;;;;5054480;28;20483;-63
2021/06/16 01:18:54;;;;;;;2.80;2.10;;;;;;;;;;5054057;28;20813;-64
2021/06/16 01:21:22;;;;;;;2.97;2.10;;;;;;;;;;5054398;28;20460;-63
2021/06/16 01:24:07;;;;;;;2.80;1.83;;;;;;;;;;5054784;28;20468;-63
2021/06/16 01:26:40;;;;;;;3.40;2.37;;;;;;;;;;5054834;28;20467;-63
2021/06/16 01:29:10;;;;;;;4.30;1.93;;;;;;;;;;5054069;28;20907;-63
2021/06/16 01:31:36;;;;;;;2.93;2.00;;;;;;;;;;5053900;28;20521;-63
2021/06/16 01:34:02;;;;;;;4.37;1.90;;;;;;;;;;5053273;28;20468;-64
2021/06/16 01:36:28;;;;;;;2.47;2.20;;;;;;;;;;5053700;28;20243;-64
2021/06/16 01:38:54;;;;;;;1.90;1.67;;;;;;;;;;5053206;28;20528;-63
2021/06/16 01:41:19;;;;;;;2.60;1.80;;;;;;;;;;5054271;28;20506;-63
2021/06/16 01:43:45;;;;;;;2.40;1.83;;;;;;;;;;5054046;28;20954;-63
2021/06/16 01:46:11;;;;;;;3.73;2.43;;;;;;;;;;5053444;28;20213;-64
2021/06/16 01:48:39;;;;;;;2.33;2.00;;;;;;;;;;5054424;28;20467;-63
2021/06/16 01:51:06;;;;;;;2.70;2.13;;;;;;;;;;5052848;28;20244;-63
2021/06/16 01:53:31;;;;;;;3.33;2.60;;;;;;;;;;5036673;28;20479;-64
2021/06/16 01:55:57;;;;;;;2.60;1.90;;;;;;;;;;5036330;28;20495;-64
2021/06/16 01:58:22;;;;;;;2.73;2.03;;;;;;;;;;5053337;28;20205;-63
2021/06/16 02:00:51;;;;;;;5.93;2.40;;;;;;;;;;5053719;28;20225;-63
2021/06/16 02:03:16;;;;;;;1.70;1.57;;;;;;;;;;5053164;28;20213;-63
2021/06/16 02:05:41;;;;;;;2.77;1.83;;;;;;;;;;5053079;28;20463;-63
2021/06/16 02:08:14;;;;;;;3.83;2.33;;;;;;;;;;5053659;28;20221;-63
2021/06/16 02:10:43;;;;;;;2.27;2.07;;;;;;;;;;5053187;28;20245;-64
2021/06/16 02:13:09;;;;;;;8.03;2.10;;;;;;;;;;5053557;28;20464;-63
2021/06/16 02:15:43;;;;;;;5.23;2.10;;;;;;;;;;5054070;28;20475;-63
2021/06/16 02:18:09;;;;;;;2.23;1.80;;;;;;;;;;5053746;28;20456;-63
2021/06/16 02:20:35;;;;;;;2.77;1.67;;;;;;;;;;5053950;28;20471;-64
2021/06/16 02:23:00;;;;;;;3.17;2.03;;;;;;;;;;5053498;28;20465;-63
2021/06/16 02:25:26;;;;;;;2.20;2.00;;;;;;;;;;5053000;28;20459;-63
2021/06/16 02:27:51;;;;;;;2.00;1.63;;;;;;;;;;5053327;28;20270;-64
2021/06/16 02:30:17;;;;;;;4.57;1.77;;;;;;;;;;5053584;28;20221;-63
2021/06/16 02:32:43;;;;;;;2.40;2.13;;;;;;;;;;5053958;28;20231;-64
2021/06/16 02:35:09;;;;;;;1.70;1.60;;;;;;;;;;5053240;28;20818;-63
2021/06/16 02:37:37;;;;;;;2.20;1.60;;;;;;;;;;5052714;28;20538;-64
2021/06/16 02:40:07;;;;;;;2.20;2.00;;;;;;;;;;5052171;28;20776;-63
2021/06/16 02:42:32;;;;;;;2.70;1.60;;;;;;;;;;5052204;28;20970;-63
2021/06/16 02:45:00;;;;;;;2.00;1.80;;;;;;;;;;5052278;28;20459;-63
2021/06/16 02:47:26;;;;;;;2.77;1.90;;;;;;;;;;5052774;28;20232;-63
2021/06/16 02:49:57;;;;;;;2.10;1.57;;;;;;;;;;5052204;28;20823;-63
2021/06/16 02:52:22;;;;;;;2.13;1.60;;;;;;;;;;5046338;28;20464;-62
2021/06/16 02:54:54;;;;;;;3.70;2.30;;;;;;;;;;5043515;28;20521;-63
2021/06/16 02:57:21;;;;;;;2.93;1.93;;;;;;;;;;5073312;28;20217;-63
2021/06/16 02:59:48;;;;;;;5.87;1.77;;;;;;;;;;5065208;28;20471;-62
2021/06/16 03:02:15;;;;;;;2.40;1.93;;;;;;;;;;5059894;28;20467;-62
2021/06/16 03:04:41;;;;;;;1.87;1.77;;;;;;;;;;5059929;28;20511;-63
2021/06/16 03:07:07;;;;;;;2.43;1.90;;;;;;;;;;5043496;28;20974;-63
2021/06/16 03:09:33;;;;;;;3.63;1.83;;;;;;;;;;5061657;28;20467;-63
2021/06/16 03:11:59;;;;;;;2.07;1.73;;;;;;;;;;5042397;28;20911;-63
2021/06/16 03:14:25;;;;;;;2.20;1.80;;;;;;;;;;5068128;28;20231;-63
2021/06/16 03:16:51;;;;;;;3.17;1.70;;;;;;;;;;5065018;28;20470;-64
2021/06/16 03:19:17;;;;;;;2.20;1.73;;;;;;;;;;5063452;28;20228;-63
2021/06/16 03:21:44;;;;;;;2.53;1.60;;;;;;;;;;5067897;28;20482;-63
2021/06/16 03:24:10;;;;;;;3.87;2.60;;;;;;;;;;5068908;28;20611;-63
2021/06/16 03:26:35;;;;;;;1.90;1.70;;;;;;;;;;5061632;28;20467;-63
2021/06/16 03:29:01;;;;;;;4.43;2.10;;;;;;;;;;5065434;28;20612;-64
2021/06/16 03:31:26;;;;;;;2.53;1.97;;;;;;;;;;5065030;28;20689;-64
2021/06/16 03:33:53;;;;;;;5.13;2.17;;;;;;;;;;5062121;28;20304;-62
2021/06/16 03:36:19;;;;;;;5.53;2.80;;;;;;;;;;5068827;28;20221;-63
2021/06/16 03:38:45;;;;;;;3.40;1.77;;;;;;;;;;5070198;28;20462;-63
2021/06/16 03:41:11;;;;;;;3.83;2.43;;;;;;;;;;5062688;28;20775;-63
2021/06/16 03:43:37;;;;;;;3.80;2.50;;;;;;;;;;5063088;28;20947;-63
2021/06/16 03:46:05;;;;;;;4.00;3.10;;;;;;;;;;5067571;28;20841;-63
2021/06/16 03:48:31;;;;;;;6.60;5.23;;;;;;;;;;5070167;28;20790;-63
2021/06/16 03:50:57;;;;;;;8.00;5.50;;;;;;;;;;5055862;28;20471;-63
2021/06/16 03:53:22;;;;;;;7.87;5.43;;;;;;;;;;5067376;28;20843;-63
2021/06/16 03:55:49;;;;;;;5.60;3.43;;;;;;;;;;5063689;28;20255;-63
2021/06/16 03:58:14;;;;;;;3.60;3.30;;;;;;;;;;5061187;28;20650;-63
2021/06/16 04:00:40;;;;;;;14.43;11.50;;;;;;;;;;5067283;28;20478;-63
2021/06/16 04:03:07;;;;;;;6.37;5.53;;;;;;;;;;5052594;28;20568;-64
2021/06/16 04:05:32;;;;;;;7.83;6.37;;;;;;;;;;5068095;28;20543;-64
2021/06/16 04:07:57;;;;;;;7.57;6.10;;;;;;;;;;5068944;28;20993;-63
2021/06/16 04:10:24;;;;;;;6.67;5.23;;;;;;;;;;5064095;28;20232;-63
2021/06/16 04:12:49;;;;;;;3.73;2.70;;;;;;;;;;5061848;28;20222;-63
2021/06/16 04:15:18;;;;;;;6.60;4.00;;;;;;;;;;5067986;28;20539;-63
2021/06/16 04:17:44;;;;;;;5.50;4.20;;;;;;;;;;5068447;28;20234;-63
2021/06/16 04:20:10;;;;;;;6.83;4.33;;;;;;;;;;5063649;28;20553;-63
2021/06/16 04:22:36;;;;;;;11.20;9.00;;;;;;;;;;5062424;28;20608;-63
2021/06/16 04:25:03;;;;;;;8.23;6.93;;;;;;;;;;5066241;28;20464;-63
2021/06/16 04:27:28;;;;;;;5.20;4.70;;;;;;;;;;5070272;28;20498;-63
2021/06/16 04:29:54;;;;;;;5.17;2.63;;;;;;;;;;5067568;28;20559;-63
2021/06/16 04:32:20;;;;;;;5.10;3.50;;;;;;;;;;5069234;28;20224;-63
2021/06/16 04:34:45;;;;;;;3.20;2.83;;;;;;;;;;5063329;28;20221;-64
2021/06/16 04:37:10;;;;;;;8.20;6.57;;;;;;;;;;5061639;28;20497;-63
2021/06/16 04:39:36;;;;;;;11.13;8.13;;;;;;;;;;5067415;28;20299;-63
2021/06/16 04:42:02;;;;;;;5.77;4.13;;;;;;;;;;5068222;28;20672;-63
2021/06/16 04:44:27;;;;;;;11.50;8.90;;;;;;;;;;5063013;28;20247;-64
2021/06/16 04:46:52;;;;;;;4.57;3.93;;;;;;;;;;5061710;28;20467;-64
2021/06/16 04:49:18;;;;;;;3.80;2.90;;;;;;;;;;5068473;28;20264;-64
2021/06/16 04:51:43;;;;;;;5.60;3.93;;;;;;;;;;5068768;28;20715;-64
2021/06/16 04:54:10;;;;;;;4.00;2.77;;;;;;;;;;5048157;28;20213;-62
2021/06/16 04:56:39;;;;;;;5.27;2.93;;;;;;;;;;5062431;28;20552;-63
2021/06/16 04:59:05;;;;;;;3.60;2.50;;;;;;;;;;5047249;28;20470;-63
2021/06/16 05:01:30;;;;;;;4.27;2.40;;;;;;;;;;5057437;28;20872;-63
2021/06/16 05:03:56;;;;;;;2.80;2.43;;;;;;;;;;5063563;28;20259;-62
2021/06/16 05:06:21;;;;;;;4.43;2.10;;;;;;;;;;5062234;28;20240;-64
2021/06/16 05:08:46;;;;;;;4.07;2.40;;;;;;;;;;5061413;28;20225;-63
2021/06/16 05:11:12;;;;;;;5.50;2.43;;;;;;;;;;5072741;28;20299;-63
2021/06/16 05:13:37;;;;;;;5.97;2.63;;;;;;;;;;5061615;28;20232;-63
2021/06/16 05:16:02;;;;;;;3.03;2.20;;;;;;;;;;5067741;28;20244;-63
2021/06/16 05:18:28;;;;;;;4.80;3.77;;;;;;;;;;5068253;28;20243;-63
2021/06/16 05:20:53;;;;;;;4.50;2.83;;;;;;;;;;5048042;28;20224;-64
2021/06/16 05:23:18;;;;;;;3.87;2.90;;;;;;;;;;5060302;28;20232;-63
2021/06/16 05:25:46;;;;;;;5.03;2.60;;;;;;;;;;5067917;28;20229;-63
2021/06/16 05:28:12;;;;;;;6.20;3.80;;;;;;;;;;5059626;28;20537;-63
2021/06/16 05:30:37;;;;;;;2.70;2.50;;;;;;;;;;5067729;28;20471;-64
2021/06/16 05:33:03;;;;;;;3.60;2.10;;;;;;;;;;5067192;28;20358;-62
2021/06/16 05:35:29;;;;;;;7.80;4.20;;;;;;;;;;5060959;28;20607;-63
2021/06/16 05:37:54;;;;;;;4.30;2.10;;;;;;;;;;5061073;28;20502;-63
2021/06/16 05:40:19;;;;;;;3.90;2.07;;;;;;;;;;5066245;28;20225;-63
2021/06/16 05:42:45;;;;;;;4.80;2.27;;;;;;;;;;5067300;28;20240;-63
2021/06/16 05:45:12;;;;;;;3.10;2.40;;;;;;;;;;5060576;28;20221;-62
2021/06/16 05:47:38;;;;;;;4.23;2.00;;;;;;;;;;5061494;28;20299;-63
2021/06/16 05:50:04;;;;;;;4.20;3.00;;;;;;;;;;5066865;28;20464;-63
2021/06/16 05:52:29;;;;;;;3.63;2.40;;;;;;;;;;5067018;28;20216;-63
2021/06/16 05:54:54;;;;;;;6.07;3.90;;;;;;;;;;5047980;28;20464;-62
2021/06/16 05:57:19;;;;;;;2.50;2.30;;;;;;;;;;5060275;28;20299;-63
2021/06/16 05:59:45;;;;;;;4.60;1.80;;;;;;;;;;5060547;28;20556;-63
2021/06/16 06:02:10;;;;;;;8.43;2.20;;;;;;;;;;5048712;28;20291;-63
2021/06/16 06:04:35;;;;;;;2.70;1.60;;;;;;;;;;5059645;28;20232;-62
2021/06/16 06:07:03;;;;;;;4.50;3.00;;;;;;;;;;5060737;28;20382;-62
2021/06/16 06:09:28;;;;;;;5.33;2.40;;;;;;;;;;5067236;28;20232;-63
2021/06/16 06:11:53;;;;;;;4.87;3.40;;;;;;;;;;5066928;28;20801;-63
2021/06/16 06:14:18;;;;;;;2.07;1.80;;;;;;;;;;5059830;28;20224;-63
2021/06/16 06:16:44;;;;;;;3.30;1.83;;;;;;;;;;5061202;28;20221;-63
2021/06/16 06:19:09;;;;;;;3.73;1.90;;;;;;;;;;5066652;28;20618;-62
2021/06/16 06:21:34;;;;;;;3.80;2.63;;;;;;;;;;5054168;28;20328;-62
2021/06/16 06:24:01;;;;;;;3.33;2.27;;;;;;;;;;5066514;28;20231;-63
2021/06/16 06:26:27;;;;;;;3.00;2.27;;;;;;;;;;5065969;28;20278;-63
2021/06/16 06:28:53;;;;;;;2.47;1.90;;;;;;;;;;5056782;28;20889;-63
2021/06/16 06:31:18;;;;;;;5.67;3.70;;;;;;;;;;5060061;28;20539;-63
2021/06/16 06:33:43;;;;;;;6.43;4.87;;;;;;;;;;5067090;28;20474;-63
2021/06/16 06:36:08;;;;;;;2.90;2.60;;;;;;;;;;5064631;28;20228;-63
2021/06/16 06:38:34;;;;;;;5.97;4.30;;;;;;;;;;5059971;28;20601;-63
2021/06/16 06:40:59;;;;;;;8.83;6.50;;;;;;;;;;5061950;28;20237;-62
2021/06/16 06:43:24;;;;;;;7.60;6.90;;;;;;;;;;5066550;28;20564;-63
2021/06/16 06:45:50;;;;;;;6.03;3.57;;;;;;;;;;5064676;28;20703;-63
2021/06/16 06:48:15;;;;;;;11.70;9.30;;;;;;;;;;5058554;28;20228;-62
2021/06/16 06:50:40;;;;;;;8.00;6.00;;;;;;;;;;5062626;28;20236;-63
2021/06/16 06:53:05;;;;;;;7.97;3.90;;;;;;;;;;5066197;28;20225;-63
2021/06/16 06:55:31;;;;;;;7.00;5.67;;;;;;;;;;5041584;28;20226;-62
2021/06/16 06:57:56;;;;;;;7.23;5.40;;;;;;;;;;5065219;28;20282;-62
2021/06/16 07:00:21;;;;;;;8.33;7.30;;;;;;;;;;5064165;28;20235;-63
2021/06/16 07:02:47;;;;;;;11.10;4.93;;;;;;;;;;5044262;28;20225;-62
2021/06/16 07:05:13;;;;;;;6.13;5.27;;;;;;;;;;5064477;28;20299;-63
2021/06/16 07:07:42;;;;;;;5.80;4.13;;;;;;;;;;5059615;28;20224;-63
2021/06/16 07:10:07;;;;;;;3.80;2.37;;;;;;;;;;5060834;28;20817;-63
2021/06/16 07:12:33;;;;;;;3.23;2.30;;;;;;;;;;5065429;28;20482;-62
2021/06/16 07:14:58;;;;;;;5.47;2.50;;;;;;;;;;5064717;28;20539;-63
2021/06/16 07:17:23;;;;;;;4.33;2.20;;;;;;;;;;5058772;28;20232;-63
2021/06/16 07:19:50;;;;;;;3.20;2.10;;;;;;;;;;5061944;28;20259;-63
2021/06/16 07:22:16;;;;;;;5.83;3.00;;;;;;;;;;5065821;28;20257;-62
2021/06/16 07:24:41;;;;;;;6.20;4.00;;;;;;;;;;5063271;28;20486;-64
2021/06/16 07:27:07;;;;;;;4.37;3.00;;;;;;;;;;5058072;28;20517;-62
2021/06/16 07:29:32;;;;;;;5.50;2.97;;;;;;;;;;5062129;28;20239;-62
2021/06/16 07:31:58;;;;;;;8.90;4.00;;;;;;;;;;5066364;28;20225;-62
2021/06/16 07:34:23;;;;;;;6.40;2.90;;;;;;;;;;5063039;28;20307;-62
2021/06/16 07:36:49;;;;;;;4.60;3.50;;;;;;;;;;5059298;28;20613;-63
2021/06/16 07:39:14;;;;;;;4.83;2.73;;;;;;;;;;5061967;28;20268;-62
2021/06/16 07:41:39;;;;;;;6.70;3.77;;;;;;;;;;5057610;28;20237;-61
2021/06/16 07:44:04;;;;;;;6.33;4.00;;;;;;;;;;5059958;28;20246;-62
2021/06/16 07:46:30;;;;;;;7.37;4.03;;;;;;;;;;5044968;28;20617;-62
2021/06/16 07:48:55;;;;;;;8.13;3.90;;;;;;;;;;5062944;28;20228;-63
2021/06/16 07:51:21;;;;;;;3.60;2.93;;;;;;;;;;5066518;28;20712;-62
2021/06/16 07:53:46;;;;;;;6.40;3.10;;;;;;;;;;5062852;28;20220;-62
2021/06/16 07:56:12;;;;;;;5.77;2.83;;;;;;;;;;5054737;28;20643;-63
2021/06/16 07:58:37;;;;;;;3.60;2.20;;;;;;;;;;5054185;28;20671;-63
2021/06/16 08:01:02;;;;;;;5.00;2.90;;;;;;;;;;5067626;28;20233;-63
2021/06/16 08:03:28;;;;;;;3.27;2.00;;;;;;;;;;5046201;28;20233;-64
2021/06/16 08:05:54;;;;;;;6.83;3.67;;;;;;;;;;5069782;28;20225;-63
2021/06/16 08:08:20;;;;;;;8.07;6.60;;;;;;;;;;5065210;28;20566;-63
2021/06/16 08:10:45;;;;;;;3.27;2.30;;;;;;;;;;5062658;28;20466;-62
2021/06/16 08:13:11;;;;;;;3.13;2.30;;;;;;;;;;5066005;28;20232;-62
2021/06/16 08:15:37;;;;;;;4.53;4.13;;;;;;;;;;5066127;28;20216;-62
2021/06/16 08:18:02;;;;;;;3.43;2.80;;;;;;;;;;5066688;28;20463;-62
2021/06/16 08:20:28;;;;;;;9.87;3.17;;;;;;;;;;5068927;28;20239;-63
2021/06/16 08:22:53;;;;;;;3.30;2.27;;;;;;;;;;5065114;28;20229;-63
2021/06/16 08:25:19;;;;;;;4.33;3.33;;;;;;;;;;5061905;28;20690;-63
2021/06/16 08:27:44;;;;;;;6.20;3.20;;;;;;;;;;5066992;28;20228;-63
2021/06/16 08:30:11;;;;;;;3.37;2.97;;;;;;;;;;5067498;28;20231;-62
2021/06/16 08:32:36;;;;;;;4.57;2.90;;;;;;;;;;5064838;28;20231;-63
2021/06/16 08:35:02;;;;;;;4.90;2.60;;;;;;;;;;5053471;28;20464;-62
2021/06/16 08:37:28;;;;;;;3.73;2.43;;;;;;;;;;5063433;28;20571;-63
2021/06/16 08:39:53;;;;;;;4.87;2.43;;;;;;;;;;5062030;28;20479;-62
2021/06/16 08:42:18;;;;;;;3.80;3.07;;;;;;;;;;5063945;28;20258;-63
2021/06/16 08:44:43;;;;;;;3.60;2.60;;;;;;;;;;5068963;28;20282;-63
2021/06/16 08:47:09;;;;;;;3.33;2.80;;;;;;;;;;5051313;28;20323;-63
2021/06/16 08:49:34;;;;;;;3.90;2.13;;;;;;;;;;5057251;28;20237;-63
2021/06/16 08:52:00;;;;;;;3.23;2.93;;;;;;;;;;5048111;28;20719;-63
2021/06/16 08:54:25;;;;;;;3.20;2.40;;;;;;;;;;5059985;28;20290;-63
2021/06/16 08:56:51;;;;;;;5.10;3.50;;;;;;;;;;5064880;28;20212;-63
2021/06/16 08:59:16;;;;;;;3.63;2.57;;;;;;;;;;5061216;28;20232;-62
2021/06/16 09:01:41;;;;;;;6.30;3.17;;;;;;;;;;5060241;28;20309;-62
2021/06/16 09:04:07;;;;;;;7.40;4.27;;;;;;;;;;5064189;28;20571;-63
2021/06/16 09:06:32;;;;;;;4.67;3.20;;;;;;;;;;5062789;28;20220;-62
2021/06/16 09:09:07;;;;;;;7.10;3.30;;;;;;;;;;5061587;28;20229;-62
2021/06/16 09:11:38;;;;;;;3.43;2.50;;;;;;;;;;5064727;28;20225;-63
2021/06/16 09:14:18;;;;;;;3.60;2.80;;;;;;;;;;5068592;28;20487;-62
2021/06/16 09:16:43;;;;;;;5.93;2.60;;;;;;;;;;5066573;28;21312;-63
2021/06/16 09:19:22;;;;;;;2.77;1.90;;;;;;;;;;5061283;28;20459;-63
2021/06/16 09:21:49;;;;;;;5.13;2.93;;;;;;;;;;5060022;28;20285;-62
2021/06/16 09:24:15;;;;;;;6.20;3.20;;;;;;;;;;5067930;28;20770;-63
2021/06/16 09:26:42;;;;;;;3.60;2.63;;;;;;;;;;5067750;28;20463;-62
2021/06/16 09:29:08;;;;;;;5.30;3.77;;;;;;;;;;5061754;28;20482;-63
2021/06/16 09:31:44;;;;;;;4.80;2.50;;;;;;;;;;5060889;28;20460;-62
2021/06/16 09:34:12;;;;;;;2.87;2.30;;;;;;;;;;5066209;28;20217;-63
2021/06/16 09:36:54;;;;;;;3.43;2.53;;;;;;;;;;5066108;28;20521;-63
2021/06/16 09:39:23;;;;;;;4.20;2.90;;;;;;;;;;5065392;28;20470;-63
2021/06/16 09:42:03;;;;;;;3.67;2.67;;;;;;;;;;5056203;28;20844;-62
2021/06/16 09:44:41;;;;;;;2.97;2.60;;;;;;;;;;5060268;28;21008;-62
2021/06/16 09:47:23;;;;;;;2.70;2.50;;;;;;;;;;5065836;28;20556;-63
2021/06/16 09:49:53;;;;;;;3.20;2.67;;;;;;;;;;5066074;28;20560;-63
2021/06/16 09:52:43;;;;;;;3.00;2.70;;;;;;;;;;5063251;28;20498;-63
2021/06/16 09:55:12;;;;;;;5.90;2.60;;;;;;;;;;5037990;28;20546;-63
2021/06/16 09:57:37;;;;;;;4.70;2.67;;;;;;;;;;5059509;28;20452;-63
2021/06/16 10:00:08;;;;;;;5.77;2.70;;;;;;;;;;5064367;28;20476;-63
2021/06/16 10:02:34;;;;;;;4.53;2.77;;;;;;;;;;5059128;28;20243;-62
2021/06/16 10:05:02;;;;;;;2.93;2.20;;;;;;;;;;5064465;28;20790;-63
2021/06/16 10:07:32;;;;;;;3.33;2.57;;;;;;;;;;5067005;28;20668;-63
2021/06/16 10:10:08;;;;;;;6.20;2.70;;;;;;;;;;5063869;28;20470;-63
2021/06/16 10:13:05;;;;;;;4.63;3.70;;;;;;;;;;5059079;28;20473;-63
2021/06/16 10:15:36;;;;;;;4.90;3.13;;;;;;;;;;5028709;28;20484;-63
2021/06/16 10:18:12;;;;;;;5.77;3.13;;;;;;;;;;5035105;28;20969;-63
2021/06/16 10:20:40;;;;;;;3.60;2.57;;;;;;;;;;5064722;28;20509;-63
2021/06/16 10:23:06;;;;;;;3.37;3.07;;;;;;;;;;5064110;28;20467;-63
2021/06/16 10:25:31;;;;;;;4.30;2.83;;;;;;;;;;5059733;28;20469;-63
2021/06/16 10:27:59;;;;;;;3.70;2.70;;;;;;;;;;5062375;28;20304;-63
2021/06/16 10:30:26;;;;;;;4.53;2.90;;;;;;;;;;5061526;28;20252;-63
2021/06/16 10:32:51;;;;;;;4.60;2.90;;;;;;;;;;5044659;28;20464;-63
2021/06/16 10:35:26;;;;;;;3.83;3.00;;;;;;;;;;5064890;28;20541;-63
2021/06/16 10:38:02;;;;;;;3.60;3.30;;;;;;;;;;5054416;28;20271;-64
2021/06/16 10:40:28;;;;;;;3.80;3.23;;;;;;;;;;5047496;28;20473;-62
2021/06/16 10:43:03;;;;;;;3.63;2.53;;;;;;;;;;5059799;28;20475;-63
2021/06/16 10:45:33;;;;;;;3.33;2.37;;;;;;;;;;5064215;28;20497;-63
2021/06/16 10:48:04;;;;;;;6.77;2.90;;;;;;;;;;5066895;28;20451;-63
2021/06/16 10:50:44;;;;;;;4.77;2.60;;;;;;;;;;5067450;28;20549;-63
2021/06/16 10:53:10;;;;;;;5.80;3.30;;;;;;;;;;5060047;28;20454;-63
2021/06/16 10:55:57;;;;;;;4.63;4.07;;;;;;;;;;5058083;28;20460;-63
2021/06/16 10:58:25;;;;;;;4.47;4.07;;;;;;;;;;5049819;28;20224;-63
2021/06/16 11:01:13;;;;;;;3.57;2.77;;;;;;;;;;5059544;28;20464;-62
2021/06/16 11:03:48;;;;;;;4.00;3.27;;;;;;;;;;5056106;28;20511;-63
2021/06/16 11:06:45;;;;;;;5.50;2.90;;;;;;;;;;5059733;28;20462;-63
2021/06/16 11:09:13;;;;;;;4.10;2.67;;;;;;;;;;5035509;28;20459;-63
2021/06/16 11:12:06;;;;;;;6.10;3.47;;;;;;;;;;5062400;28;20478;-63
2021/06/16 11:14:38;;;;;;;2.83;2.40;;;;;;;;;;5049063;28;20459;-63
2021/06/16 11:17:24;;;;;;;8.23;4.10;;;;;;;;;;5059377;28;20470;-63
2021/06/16 11:19:57;;;;;;;4.57;3.83;;;;;;;;;;5037477;28;20797;-62
2021/06/16 11:22:26;;;;;;;2.90;2.70;;;;;;;;;;5065463;28;20539;-63
2021/06/16 11:25:13;;;;;;;3.20;2.70;;;;;;;;;;5065382;28;20925;-63
2021/06/16 11:27:56;;;;;;;4.87;4.13;;;;;;;;;;5049178;28;20945;-63
2021/06/16 11:30:56;;;;;;;3.30;2.80;;;;;;;;;;5065823;28;20556;-62
2021/06/16 11:33:21;;;;;;;2.60;2.40;;;;;;;;;;5066267;28;20451;-63
2021/06/16 11:35:50;;;;;;;3.50;2.23;;;;;;;;;;5064856;28;20855;-63
2021/06/16 11:38:18;;;;;;;4.33;3.93;;;;;;;;;;5062524;28;20311;-63
2021/06/16 11:40:58;;;;;;;3.90;2.80;;;;;;;;;;5069005;28;20455;-63
2021/06/16 11:43:40;;;;;;;3.87;3.20;;;;;;;;;;5071777;28;20517;-63
2021/06/16 11:46:26;;;;;;;5.07;3.67;;;;;;;;;;5070707;28;20469;-63
2021/06/16 11:48:58;;;;;;;8.80;7.40;;;;;;;;;;5054681;28;20887;-62
2021/06/16 11:51:41;;;;;;;5.90;4.10;;;;;;;;;;5078395;28;20575;-64
2021/06/16 11:54:24;;;;;;;3.97;2.67;;;;;;;;;;5063763;28;20221;-63
2021/06/16 11:57:09;;;;;;;6.78;6.28;;;;;;;;;;5068450;28;20230;-63
2021/06/16 11:59:53;;;;;;;6.13;5.50;;;;;;;;;;5073652;28;20224;-63
2021/06/16 12:02:22;;;;;;;6.15;5.75;;;;;;;;;;5062442;28;20647;-64
2021/06/16 12:05:04;;;;;;;7.30;6.60;;;;;;;;;;5074064;28;20217;-64
2021/06/16 12:07:32;;;;;;;7.97;7.38;;;;;;;;;;5063506;28;20304;-64
2021/06/16 12:10:03;;;;;;;4.10;3.15;;;;;;;;;;5075191;28;20224;-64
2021/06/16 12:12:43;;;;;;;7.35;6.65;;;;;;;;;;5075467;28;20224;-64
2021/06/16 12:15:11;;;;;;;6.45;4.55;;;;;;;;;;5070848;28;20215;-64
2021/06/16 12:17:58;;;;;;;6.03;5.53;;;;;;;;;;5068313;28;20231;-63
2021/06/16 12:20:25;;;;;;;24.35;10.50;;;;;;;;;;5070063;28;20286;-64
2021/06/16 12:22:50;;;;;;;9.70;7.25;;;;;;;;;;5074915;28;20227;-64
2021/06/16 12:25:29;;;;;;;3.25;2.95;;;;;;;;;;5073323;28;20639;-66
2021/06/16 12:27:56;;;;;;;4.70;4.28;;;;;;;;;;5069299;28;20226;-64
2021/06/16 12:30:26;;;;;;;4.82;3.88;;;;;;;;;;5069462;28;20217;-63
2021/06/16 12:33:24;;;;;;;7.95;7.30;;;;;;;;;;5076284;28;20299;-63
2021/06/16 12:38:46;;;;;;;6.60;5.68;;;;;;;;;;5073865;28;20219;-64
2021/06/16 12:41:30;;;;;;;9.00;8.20;;;;;;;;;;5069530;28;20234;-64
2021/06/16 12:44:17;;;;;;;9.00;8.13;;;;;;;;;;5081780;28;20322;-65
2021/06/16 12:47:12;;;;;;;10.43;8.18;;;;;;;;;;5069933;28;20230;-63
2021/06/16 12:49:43;;;;;;;8.30;5.80;;;;;;;;;;5079462;28;20230;-63
2021/06/16 12:52:10;;;;;;;6.18;3.47;;;;;;;;;;5080861;28;20228;-63
2021/06/16 12:54:41;;;;;;;12.77;6.05;;;;;;;;;;5075115;28;20303;-63
2021/06/16 12:57:16;;;;;;;6.75;6.15;;;;;;;;;;5076545;28;20223;-63
2021/06/16 12:59:49;;;;;;;6.68;6.18;;;;;;;;;;5049166;28;20243;-64
2021/06/16 13:02:27;;;;;;;6.72;5.80;;;;;;;;;;5040671;28;20221;-64
2021/06/16 13:04:57;;;;;;;5.45;4.95;;;;;;;;;;5044584;28;20220;-63
2021/06/16 13:07:23;;;;;;;6.32;5.72;;;;;;;;;;5046905;28;20572;-64
2021/06/16 13:10:09;;;;;;;7.88;4.93;;;;;;;;;;5063030;28;20232;-64
2021/06/16 13:12:35;;;;;;;5.18;4.68;;;;;;;;;;5049258;28;20228;-63
2021/06/16 13:15:06;;;;;;;8.52;5.05;;;;;;;;;;5049486;28;20210;-63
2021/06/16 13:17:43;;;;;;;7.57;6.22;;;;;;;;;;5047408;28;20224;-63
2021/06/16 13:20:09;;;;;;;5.07;3.75;;;;;;;;;;5045844;28;20216;-64
2021/06/16 13:22:36;;;;;;;7.95;5.25;;;;;;;;;;5045307;28;20225;-66
2021/06/16 13:25:04;;;;;;;5.38;4.03;;;;;;;;;;5043797;28;20291;-64
2021/06/16 13:27:29;;;;;;;2.67;2.40;;;;;;;;;;5042798;28;20213;-64
2021/06/16 13:29:59;;;;;;;4.45;4.05;;;;;;;;;;5043202;28;20232;-64
2021/06/16 13:32:25;;;;;;;4.90;3.22;;;;;;;;;;5043190;28;20212;-64
2021/06/16 13:34:50;;;;;;;5.20;4.70;;;;;;;;;;5040798;28;20673;-64
2021/06/16 13:37:15;;;;;;;4.35;3.95;;;;;;;;;;5040063;28;20243;-64
2021/06/16 13:39:41;;;;;;;7.43;6.82;;;;;;;;;;5039947;28;20550;-64
2021/06/16 13:42:06;;;;;;;4.03;2.95;;;;;;;;;;5039510;28;20268;-64
2021/06/16 13:44:31;;;;;;;3.08;2.88;;;;;;;;;;5038562;28;20225;-64
2021/06/16 13:46:57;;;;;;;5.03;2.75;;;;;;;;;;5038389;28;20217;-64
2021/06/16 13:49:22;;;;;;;4.17;3.80;;;;;;;;;;5038303;28;20229;-63
2021/06/16 13:51:48;;;;;;;3.40;3.10;;;;;;;;;;5037861;28;20304;-64
2021/06/16 13:54:13;;;;;;;4.17;3.73;;;;;;;;;;5045385;28;20212;-64
2021/06/16 13:56:40;;;;;;;4.00;3.60;;;;;;;;;;5056142;28;20212;-64
2021/06/16 13:59:05;;;;;;;4.20;3.80;;;;;;;;;;5055459;28;20316;-64
2021/06/16 14:01:31;;;;;;;3.40;3.10;;;;;;;;;;5055088;28;20562;-64
2021/06/16 14:03:57;;;;;;;5.07;3.50;;;;;;;;;;5054787;28;20212;-64
2021/06/16 14:06:22;;;;;;;4.43;2.90;;;;;;;;;;5055407;28;20672;-63
2021/06/16 14:08:47;;;;;;;4.27;3.90;;;;;;;;;;5054358;28;20213;-63
2021/06/16 14:11:13;;;;;;;4.07;3.23;;;;;;;;;;5054469;28;20213;-64
2021/06/16 14:13:38;;;;;;;3.53;3.23;;;;;;;;;;5054104;28;20224;-65
2021/06/16 14:16:04;;;;;;;3.73;3.30;;;;;;;;;;5054397;28;20645;-63
2021/06/16 14:18:29;;;;;;;4.10;3.13;;;;;;;;;;5054323;28;20232;-63
2021/06/16 14:20:55;;;;;;;4.30;3.40;;;;;;;;;;5054745;28;20225;-64
2021/06/16 14:23:20;;;;;;;3.10;2.80;;;;;;;;;;5054755;28;20236;-64
2021/06/16 14:25:46;;;;;;;3.87;3.53;;;;;;;;;;5053120;28;20487;-63
2021/06/16 14:28:12;;;;;;;4.33;3.00;;;;;;;;;;5053219;28;20249;-63
2021/06/16 14:30:37;;;;;;;4.40;3.00;;;;;;;;;;5053686;28;20275;-63
2021/06/16 14:33:04;;;;;;;3.57;3.00;;;;;;;;;;5054060;28;20460;-63
2021/06/16 14:35:29;;;;;;;4.10;2.97;;;;;;;;;;5053767;28;20657;-64
2021/06/16 14:37:54;;;;;;;5.20;3.33;;;;;;;;;;5053278;28;20513;-63
2021/06/16 14:40:20;;;;;;;4.70;3.83;;;;;;;;;;5051711;28;20280;-63
2021/06/16 14:42:46;;;;;;;3.97;2.90;;;;;;;;;;5033150;28;20270;-63
2021/06/16 14:45:13;;;;;;;5.37;3.87;;;;;;;;;;5034023;28;20213;-64
2021/06/16 14:47:38;;;;;;;4.30;2.60;;;;;;;;;;5033408;28;20453;-63
2021/06/16 14:50:04;;;;;;;4.73;3.33;;;;;;;;;;5054956;28;20957;-63
2021/06/16 14:52:30;;;;;;;5.17;3.27;;;;;;;;;;5073741;28;20647;-64